SSG04A EDLP-EBAW
Flight info
| Callsign | SSG04A |
|---|---|
| Flight time | 0h 33m |
| Altitude | 28000 |
| Route | TINSA1X TINSA DCT NETEX/N0377F240 Z282 DIBIR/N0346F180 L179 SONDI DCT WOODY |
| Aircraft | A319/M-SDE3FGHIRWY/LB1 |
Departure
| Time | 2026-04-30 18:42 |
|---|---|
| Airport | Paderborn Lippstadt Airport (EDLP) |
Arrival
| Time | 2026-04-30 19:16 |
|---|---|
| Airport | Antwerp International Airport (Deurne) (EBAW) |
| Time | Latitude | Longitude | Altitude | Speed | Heading |
|---|---|---|---|---|---|
| 2026-04-30 18:33 | 51.61032 | 8.61671 | 698 ft | 0 kts | 237° |
| 2026-04-30 18:38 | 51.61024 | 8.61647 | 695 ft | 5 kts | 245° |
| 2026-04-30 18:38 | 51.61030 | 8.61601 | 691 ft | 4 kts | 307° |
| 2026-04-30 18:38 | 51.61035 | 8.61592 | 692 ft | 0 kts | 309° |
| 2026-04-30 18:38 | 51.61032 | 8.61554 | 697 ft | 9 kts | 245° |
| 2026-04-30 18:39 | 51.60992 | 8.61460 | 699 ft | 10 kts | 240° |
| 2026-04-30 18:39 | 51.60960 | 8.61365 | 698 ft | 9 kts | 253° |
| 2026-04-30 18:39 | 51.60967 | 8.61266 | 701 ft | 9 kts | 282° |
| 2026-04-30 18:39 | 51.60980 | 8.61168 | 701 ft | 9 kts | 282° |
| 2026-04-30 18:40 | 51.60982 | 8.61072 | 696 ft | 8 kts | 248° |
| 2026-04-30 18:40 | 51.60951 | 8.60996 | 700 ft | 8 kts | 235° |
| 2026-04-30 18:40 | 51.60919 | 8.60918 | 703 ft | 10 kts | 236° |
| 2026-04-30 18:40 | 51.60874 | 8.60806 | 703 ft | 14 kts | 237° |
| 2026-04-30 18:41 | 51.60818 | 8.60665 | 706 ft | 15 kts | 237° |
| 2026-04-30 18:41 | 51.60764 | 8.60525 | 700 ft | 14 kts | 247° |
| 2026-04-30 18:41 | 51.60779 | 8.60383 | 705 ft | 14 kts | 316° |
| 2026-04-30 18:41 | 51.60863 | 8.60346 | 709 ft | 13 kts | 19° |
| 2026-04-30 18:42 | 51.60961 | 8.60537 | 700 ft | 50 kts | 56° |
| 2026-04-30 18:42 | 51.61839 | 8.62703 | 1030 ft | 143 kts | 59° |
| 2026-04-30 18:42 | 51.62364 | 8.64028 | 1807 ft | 140 kts | 62° |
| 2026-04-30 18:45 | 51.69389 | 8.57651 | 8533 ft | 291 kts | 212° |
| 2026-04-30 18:45 | 51.67707 | 8.55806 | 9451 ft | 296 kts | 213° |
| 2026-04-30 18:45 | 51.66240 | 8.53417 | 10333 ft | 306 kts | 231° |
| 2026-04-30 18:46 | 51.65145 | 8.50356 | 10832 ft | 327 kts | 240° |
| 2026-04-30 18:46 | 51.64074 | 8.46991 | 11265 ft | 346 kts | 241° |
| 2026-04-30 18:46 | 51.62979 | 8.43496 | 11969 ft | 354 kts | 241° |
| 2026-04-30 18:46 | 51.61866 | 8.39936 | 12283 ft | 357 kts | 241° |
| 2026-04-30 18:47 | 51.60745 | 8.36365 | 12370 ft | 358 kts | 241° |
| 2026-04-30 18:47 | 51.59622 | 8.32801 | 12387 ft | 357 kts | 241° |
| 2026-04-30 18:47 | 51.58491 | 8.29221 | 12581 ft | 363 kts | 241° |
| 2026-04-30 18:47 | 51.57344 | 8.25606 | 13491 ft | 364 kts | 241° |
| 2026-04-30 18:48 | 51.56169 | 8.21912 | 14308 ft | 368 kts | 241° |
| 2026-04-30 18:48 | 51.54994 | 8.18231 | 14982 ft | 373 kts | 241° |
| 2026-04-30 18:48 | 51.53802 | 8.14510 | 15275 ft | 375 kts | 241° |
| 2026-04-30 18:48 | 51.52605 | 8.10777 | 15361 ft | 376 kts | 241° |
| 2026-04-30 18:49 | 51.51622 | 8.06894 | 15374 ft | 377 kts | 252° |
| 2026-04-30 18:49 | 51.51081 | 8.02771 | 15389 ft | 379 kts | 261° |
| 2026-04-30 18:49 | 51.50684 | 7.98564 | 16017 ft | 383 kts | 261° |
| 2026-04-30 18:49 | 51.50279 | 7.94320 | 16766 ft | 386 kts | 261° |
| 2026-04-30 18:50 | 51.49869 | 7.90047 | 17216 ft | 389 kts | 261° |
| 2026-04-30 18:50 | 51.49452 | 7.85756 | 17332 ft | 389 kts | 261° |
| 2026-04-30 18:50 | 51.49032 | 7.81465 | 17358 ft | 389 kts | 261° |
| 2026-04-30 18:50 | 51.48610 | 7.77177 | 17354 ft | 389 kts | 261° |
| 2026-04-30 18:51 | 51.48182 | 7.72872 | 17578 ft | 393 kts | 261° |
| 2026-04-30 18:51 | 51.47751 | 7.68552 | 18343 ft | 395 kts | 260° |
| 2026-04-30 18:51 | 51.47313 | 7.64161 | 18992 ft | 399 kts | 260° |
| 2026-04-30 18:51 | 51.46874 | 7.59753 | 19265 ft | 400 kts | 260° |
| 2026-04-30 18:52 | 51.46459 | 7.55599 | 19337 ft | 400 kts | 260° |
| 2026-04-30 18:52 | 51.46011 | 7.51145 | 19354 ft | 400 kts | 260° |
| 2026-04-30 18:52 | 51.45562 | 7.46717 | 19786 ft | 403 kts | 260° |
| 2026-04-30 18:52 | 51.45109 | 7.42278 | 20478 ft | 405 kts | 260° |
| 2026-04-30 18:53 | 51.44652 | 7.37817 | 21079 ft | 407 kts | 260° |
| 2026-04-30 18:53 | 51.44192 | 7.33338 | 21297 ft | 407 kts | 260° |
| 2026-04-30 18:53 | 51.43769 | 7.29238 | 21352 ft | 406 kts | 260° |
| 2026-04-30 18:53 | 51.43309 | 7.24776 | 21351 ft | 406 kts | 260° |
| 2026-04-30 18:54 | 51.42846 | 7.20288 | 21782 ft | 411 kts | 260° |
| 2026-04-30 18:54 | 51.42431 | 7.16251 | 22032 ft | 422 kts | 260° |
| 2026-04-30 18:54 | 51.41941 | 7.11528 | 22153 ft | 437 kts | 260° |
| 2026-04-30 18:54 | 51.41432 | 7.06666 | 22310 ft | 449 kts | 260° |
| 2026-04-30 18:55 | 51.40907 | 7.01654 | 22339 ft | 463 kts | 260° |
| 2026-04-30 18:55 | 51.39806 | 6.91232 | 22332 ft | 485 kts | 260° |
| 2026-04-30 18:55 | 51.39234 | 6.85872 | 22332 ft | 492 kts | 259° |
| 2026-04-30 18:56 | 51.38069 | 6.75048 | 22330 ft | 493 kts | 259° |
| 2026-04-30 18:56 | 51.37485 | 6.69635 | 22328 ft | 493 kts | 259° |
| 2026-04-30 18:56 | 51.36899 | 6.64229 | 22330 ft | 493 kts | 259° |
| 2026-04-30 18:57 | 51.35714 | 6.53341 | 22327 ft | 493 kts | 259° |
| 2026-04-30 18:57 | 51.35123 | 6.47936 | 22329 ft | 493 kts | 259° |
| 2026-04-30 18:57 | 51.34526 | 6.42534 | 22328 ft | 493 kts | 259° |
| 2026-04-30 18:58 | 51.33323 | 6.31732 | 22327 ft | 493 kts | 259° |
| 2026-04-30 18:58 | 51.32412 | 6.26470 | 22323 ft | 492 kts | 248° |
| 2026-04-30 18:58 | 51.30896 | 6.21582 | 22328 ft | 490 kts | 239° |
| 2026-04-30 18:59 | 51.27574 | 6.12081 | 22320 ft | 490 kts | 240° |
| 2026-04-30 19:00 | 51.23054 | 5.97465 | 22297 ft | 491 kts | 252° |
| 2026-04-30 19:00 | 51.22397 | 5.92132 | 22305 ft | 492 kts | 264° |
| 2026-04-30 19:00 | 51.22102 | 5.81222 | 22302 ft | 492 kts | 267° |
| 2026-04-30 19:01 | 51.21786 | 5.70320 | 22303 ft | 492 kts | 267° |
| 2026-04-30 19:01 | 51.21622 | 5.64882 | 22299 ft | 492 kts | 267° |
| 2026-04-30 19:02 | 51.21295 | 5.54021 | 21806 ft | 484 kts | 266° |
| 2026-04-30 19:02 | 51.20977 | 5.43486 | 20277 ft | 468 kts | 266° |
| 2026-04-30 19:03 | 51.20712 | 5.34875 | 18988 ft | 460 kts | 266° |
| 2026-04-30 19:03 | 51.20415 | 5.25286 | 17460 ft | 452 kts | 266° |
| 2026-04-30 19:04 | 51.20094 | 5.15387 | 15983 ft | 442 kts | 266° |
| 2026-04-30 19:04 | 51.19766 | 5.05693 | 14648 ft | 434 kts | 265° |
| 2026-04-30 19:05 | 51.19434 | 4.96111 | 13326 ft | 426 kts | 265° |
| 2026-04-30 19:05 | 51.19112 | 4.86784 | 12208 ft | 412 kts | 265° |
| 2026-04-30 19:06 | 51.18814 | 4.78197 | 11945 ft | 363 kts | 265° |
| 2026-04-30 19:06 | 51.18675 | 4.74296 | 11819 ft | 342 kts | 265° |
| 2026-04-30 19:06 | 51.18412 | 4.67146 | 11386 ft | 313 kts | 264° |
| 2026-04-30 19:07 | 51.18141 | 4.60248 | 10576 ft | 308 kts | 264° |
| 2026-04-30 19:07 | 51.18007 | 4.56856 | 10151 ft | 305 kts | 264° |
| 2026-04-30 19:08 | 51.17747 | 4.50142 | 9121 ft | 302 kts | 264° |
| 2026-04-30 19:08 | 51.17491 | 4.43516 | 8116 ft | 297 kts | 263° |
| 2026-04-30 19:08 | 51.17362 | 4.40240 | 7610 ft | 295 kts | 264° |
| 2026-04-30 19:09 | 51.17103 | 4.33760 | 6616 ft | 291 kts | 263° |
| 2026-04-30 19:09 | 51.16974 | 4.30553 | 6073 ft | 290 kts | 263° |
| 2026-04-30 19:09 | 51.16844 | 4.27365 | 5575 ft | 287 kts | 263° |
| 2026-04-30 19:10 | 51.16776 | 4.21076 | 4544 ft | 285 kts | 277° |
| 2026-04-30 19:10 | 51.18630 | 4.15614 | 3501 ft | 286 kts | 321° |
| 2026-04-30 19:11 | 51.20353 | 4.14138 | 3088 ft | 279 kts | 348° |
| 2026-04-30 19:11 | 51.23916 | 4.14847 | 2996 ft | 247 kts | 37° |
| 2026-04-30 19:11 | 51.25106 | 4.16649 | 3000 ft | 233 kts | 69° |
| 2026-04-30 19:12 | 51.25304 | 4.19093 | 3000 ft | 223 kts | 107° |
| 2026-04-30 19:12 | 51.24730 | 4.21381 | 2996 ft | 223 kts | 113° |
| 2026-04-30 19:12 | 51.24183 | 4.23713 | 3004 ft | 219 kts | 113° |
| 2026-04-30 19:13 | 51.23091 | 4.28298 | 2680 ft | 223 kts | 111° |
| 2026-04-30 19:13 | 51.22084 | 4.32663 | 2000 ft | 197 kts | 110° |
| 2026-04-30 19:13 | 51.21627 | 4.34663 | 1698 ft | 186 kts | 110° |
| 2026-04-30 19:14 | 51.21201 | 4.36540 | 1418 ft | 175 kts | 110° |
| 2026-04-30 19:14 | 51.20798 | 4.38317 | 1178 ft | 165 kts | 109° |
| 2026-04-30 19:14 | 51.20420 | 4.39982 | 900 ft | 152 kts | 109° |
| 2026-04-30 19:14 | 51.20085 | 4.41462 | 666 ft | 135 kts | 109° |
| 2026-04-30 19:15 | 51.19787 | 4.42810 | 450 ft | 126 kts | 108° |
| 2026-04-30 19:15 | 51.19218 | 4.45345 | 84 ft | 120 kts | 108° |
| 2026-04-30 19:15 | 51.18977 | 4.46411 | 42 ft | 67 kts | 110° |
| 2026-04-30 19:16 | 51.18911 | 4.46752 | 40 ft | 15 kts | 114° |
| 2026-04-30 19:16 | 51.18906 | 4.46722 | 40 ft | 7 kts | 291° |
| 2026-04-30 19:16 | 51.18989 | 4.46358 | 41 ft | 21 kts | 290° |
| 2026-04-30 19:17 | 51.19042 | 4.46124 | 38 ft | 24 kts | 290° |
| 2026-04-30 19:17 | 51.19080 | 4.45655 | 37 ft | 19 kts | 233° |
| 2026-04-30 19:17 | 51.19041 | 4.45579 | 37 ft | 3 kts | 230° |
| 2026-04-30 19:18 | 51.19016 | 4.45529 | 37 ft | 4 kts | 231° |
| 2026-04-30 19:18 | 51.18982 | 4.45458 | 37 ft | 9 kts | 233° |
| 2026-04-30 19:18 | 51.18935 | 4.45390 | 37 ft | 9 kts | 186° |
| 2026-04-30 19:19 | 51.18880 | 4.45439 | 37 ft | 10 kts | 150° |
| 2026-04-30 19:19 | 51.18823 | 4.45438 | 36 ft | 7 kts | 252° |
| 2026-04-30 19:19 | 51.18858 | 4.45391 | 37 ft | 0 kts | 326° |